Terminal Aerodrome Forecast
Issued by NWS Sioux Falls, SD

Home | Current Version | Previous Version | Graphics & Text | Print | Product List | Glossary Off
Versions: 1 2 3 4 5 6 7 8 9 10 11 12 13 14 15

000
FTUS43 KFSD 211100
TAFFSD
TAF
KFSD 211120Z 2112/2212 34015G23KT P6SM SCT250
     FM211600 34019G27KT P6SM SKC
     FM220000 35014KT P6SM SKC
     FM220200 35008KT P6SM SKC
     FM220500 02004KT P6SM SKC=

USA.gov is the U.S. government's official web portal to all federal, state and local government web resources and services.